sensor_id;sensor_type;location;lat;lon;timestamp;temperature;humidity
10083;DHT22;5080;48.528;8.078;2023-04-30T00:00:08;14.50;99.90
10083;DHT22;5080;48.528;8.078;2023-04-30T00:02:35;14.30;99.90
10083;DHT22;5080;48.528;8.078;2023-04-30T00:05:02;14.30;99.90
10083;DHT22;5080;48.528;8.078;2023-04-30T00:07:29;14.20;99.90
10083;DHT22;5080;48.528;8.078;2023-04-30T00:09:56;14.20;99.90
10083;DHT22;5080;48.528;8.078;2023-04-30T00:12:24;14.20;99.90
10083;DHT22;5080;48.528;8.078;2023-04-30T00:14:51;14.20;99.90
10083;DHT22;5080;48.528;8.078;2023-04-30T00:17:20;14.20;99.90
10083;DHT22;5080;48.528;8.078;2023-04-30T00:19:47;14.20;99.90
10083;DHT22;5080;48.528;8.078;2023-04-30T00:22:15;14.20;99.90
10083;DHT22;5080;48.528;8.078;2023-04-30T00:24:42;14.00;99.90
10083;DHT22;5080;48.528;8.078;2023-04-30T00:27:09;13.90;99.90
10083;DHT22;5080;48.528;8.078;2023-04-30T00:29:37;13.90;99.90
10083;DHT22;5080;48.528;8.078;2023-04-30T00:32:04;14.00;99.90
10083;DHT22;5080;48.528;8.078;2023-04-30T00:34:31;14.00;99.90
10083;DHT22;5080;48.528;8.078;2023-04-30T00:36:58;14.00;99.90
10083;DHT22;5080;48.528;8.078;2023-04-30T00:39:25;13.90;99.90
10083;DHT22;5080;48.528;8.078;2023-04-30T00:41:52;14.00;99.90
10083;DHT22;5080;48.528;8.078;2023-04-30T00:44:19;14.10;99.90
10083;DHT22;5080;48.528;8.078;2023-04-30T00:46:47;14.00;99.90
10083;DHT22;5080;48.528;8.078;2023-04-30T00:49:13;13.90;99.90
10083;DHT22;5080;48.528;8.078;2023-04-30T00:51:40;13.80;99.90
10083;DHT22;5080;48.528;8.078;2023-04-30T00:54:08;13.70;99.90
10083;DHT22;5080;48.528;8.078;2023-04-30T00:56:34;13.70;99.90
10083;DHT22;5080;48.528;8.078;2023-04-30T00:59:01;13.80;99.90
10083;DHT22;5080;48.528;8.078;2023-04-30T01:01:28;13.90;99.90
10083;DHT22;5080;48.528;8.078;2023-04-30T01:03:57;13.90;99.90
10083;DHT22;5080;48.528;8.078;2023-04-30T01:06:25;14.00;99.90
10083;DHT22;5080;48.528;8.078;2023-04-30T01:08:53;13.90;99.90
10083;DHT22;5080;48.528;8.078;2023-04-30T01:11:30;14.00;99.90
10083;DHT22;5080;48.528;8.078;2023-04-30T01:14:07;14.00;99.90
10083;DHT22;5080;48.528;8.078;2023-04-30T01:16:40;14.10;99.90
10083;DHT22;5080;48.528;8.078;2023-04-30T01:19:25;13.90;99.90
10083;DHT22;5080;48.528;8.078;2023-04-30T01:21:56;13.80;99.90
10083;DHT22;5080;48.528;8.078;2023-04-30T01:24:47;13.70;99.90
10083;DHT22;5080;48.528;8.078;2023-04-30T01:27:23;13.60;99.90
10083;DHT22;5080;48.528;8.078;2023-04-30T01:29:57;13.70;99.90
10083;DHT22;5080;48.528;8.078;2023-04-30T01:32:25;13.70;99.90
10083;DHT22;5080;48.528;8.078;2023-04-30T01:34:51;13.60;99.90
10083;DHT22;5080;48.528;8.078;2023-04-30T01:37:23;13.50;99.90
10083;DHT22;5080;48.528;8.078;2023-04-30T01:40:02;13.40;99.90
10083;DHT22;5080;48.528;8.078;2023-04-30T01:42:40;13.30;99.90
10083;DHT22;5080;48.528;8.078;2023-04-30T01:45:21;13.30;99.90
10083;DHT22;5080;48.528;8.078;2023-04-30T01:47:55;13.20;99.90
10083;DHT22;5080;48.528;8.078;2023-04-30T01:50:27;13.20;99.90
10083;DHT22;5080;48.528;8.078;2023-04-30T01:52:59;13.10;99.90
10083;DHT22;5080;48.528;8.078;2023-04-30T01:55:32;13.10;99.90
10083;DHT22;5080;48.528;8.078;2023-04-30T01:58:02;13.20;99.90
10083;DHT22;5080;48.528;8.078;2023-04-30T02:00:32;13.20;99.90
10083;DHT22;5080;48.528;8.078;2023-04-30T02:02:59;13.10;99.90
10083;DHT22;5080;48.528;8.078;2023-04-30T02:05:26;13.00;99.90
10083;DHT22;5080;48.528;8.078;2023-04-30T02:07:53;13.00;99.90
10083;DHT22;5080;48.528;8.078;2023-04-30T02:10:23;13.10;99.90
10083;DHT22;5080;48.528;8.078;2023-04-30T02:12:50;13.10;99.90
10083;DHT22;5080;48.528;8.078;2023-04-30T02:15:17;13.10;99.90
10083;DHT22;5080;48.528;8.078;2023-04-30T02:17:45;13.00;99.90
10083;DHT22;5080;48.528;8.078;2023-04-30T02:20:12;13.10;99.90
10083;DHT22;5080;48.528;8.078;2023-04-30T02:22:39;13.10;99.90
10083;DHT22;5080;48.528;8.078;2023-04-30T02:25:06;13.20;99.90
10083;DHT22;5080;48.528;8.078;2023-04-30T02:27:33;13.20;99.90
10083;DHT22;5080;48.528;8.078;2023-04-30T02:30:00;13.20;99.90
10083;DHT22;5080;48.528;8.078;2023-04-30T02:32:27;13.20;99.90
10083;DHT22;5080;48.528;8.078;2023-04-30T02:34:56;13.20;99.90
10083;DHT22;5080;48.528;8.078;2023-04-30T02:37:23;13.20;99.90
10083;DHT22;5080;48.528;8.078;2023-04-30T02:39:51;13.20;99.90
10083;DHT22;5080;48.528;8.078;2023-04-30T02:42:18;13.10;99.90
10083;DHT22;5080;48.528;8.078;2023-04-30T02:44:45;13.10;99.90
10083;DHT22;5080;48.528;8.078;2023-04-30T02:47:12;13.10;99.90
10083;DHT22;5080;48.528;8.078;2023-04-30T02:49:39;13.10;99.90
10083;DHT22;5080;48.528;8.078;2023-04-30T02:52:08;13.00;99.90
10083;DHT22;5080;48.528;8.078;2023-04-30T02:54:34;13.00;99.90
10083;DHT22;5080;48.528;8.078;2023-04-30T02:57:02;12.90;99.90
10083;DHT22;5080;48.528;8.078;2023-04-30T02:59:29;12.90;99.90
10083;DHT22;5080;48.528;8.078;2023-04-30T03:01:55;13.00;99.90
10083;DHT22;5080;48.528;8.078;2023-04-30T03:04:22;13.00;99.90
10083;DHT22;5080;48.528;8.078;2023-04-30T03:06:49;13.00;99.90
10083;DHT22;5080;48.528;8.078;2023-04-30T03:09:17;13.00;99.90
10083;DHT22;5080;48.528;8.078;2023-04-30T03:11:44;12.90;99.90
10083;DHT22;5080;48.528;8.078;2023-04-30T03:14:11;13.00;99.90
10083;DHT22;5080;48.528;8.078;2023-04-30T03:16:38;13.00;99.90
10083;DHT22;5080;48.528;8.078;2023-04-30T03:19:04;13.00;99.90
10083;DHT22;5080;48.528;8.078;2023-04-30T03:21:31;13.00;99.90
10083;DHT22;5080;48.528;8.078;2023-04-30T03:23:58;13.00;99.90
10083;DHT22;5080;48.528;8.078;2023-04-30T03:26:27;13.00;99.90
10083;DHT22;5080;48.528;8.078;2023-04-30T03:28:53;13.00;99.90
10083;DHT22;5080;48.528;8.078;2023-04-30T03:31:20;12.90;99.90
10083;DHT22;5080;48.528;8.078;2023-04-30T03:33:47;12.90;99.90
10083;DHT22;5080;48.528;8.078;2023-04-30T03:36:14;12.90;99.90
10083;DHT22;5080;48.528;8.078;2023-04-30T03:38:41;12.90;99.90
10083;DHT22;5080;48.528;8.078;2023-04-30T03:41:08;13.00;99.90
10083;DHT22;5080;48.528;8.078;2023-04-30T03:43:36;13.00;99.90
10083;DHT22;5080;48.528;8.078;2023-04-30T03:46:03;13.00;99.90
10083;DHT22;5080;48.528;8.078;2023-04-30T03:48:30;13.00;99.90
10083;DHT22;5080;48.528;8.078;2023-04-30T03:50:57;12.90;99.90
10083;DHT22;5080;48.528;8.078;2023-04-30T03:53:24;12.90;99.90
10083;DHT22;5080;48.528;8.078;2023-04-30T03:55:52;12.90;99.90
10083;DHT22;5080;48.528;8.078;2023-04-30T03:58:19;12.90;99.90
10083;DHT22;5080;48.528;8.078;2023-04-30T04:00:47;12.80;99.90
10083;DHT22;5080;48.528;8.078;2023-04-30T04:03:15;12.60;99.90
10083;DHT22;5080;48.528;8.078;2023-04-30T04:05:41;12.70;99.90
10083;DHT22;5080;48.528;8.078;2023-04-30T04:08:09;12.70;99.90
10083;DHT22;5080;48.528;8.078;2023-04-30T04:10:36;12.70;99.90
10083;DHT22;5080;48.528;8.078;2023-04-30T04:13:03;12.70;99.90
10083;DHT22;5080;48.528;8.078;2023-04-30T04:15:31;12.80;99.90
10083;DHT22;5080;48.528;8.078;2023-04-30T04:17:59;12.90;99.90
10083;DHT22;5080;48.528;8.078;2023-04-30T04:20:26;12.90;99.90
10083;DHT22;5080;48.528;8.078;2023-04-30T04:22:54;12.90;99.90
10083;DHT22;5080;48.528;8.078;2023-04-30T04:25:21;12.80;99.90
10083;DHT22;5080;48.528;8.078;2023-04-30T04:27:50;12.90;99.90
10083;DHT22;5080;48.528;8.078;2023-04-30T04:30:17;12.90;99.90
10083;DHT22;5080;48.528;8.078;2023-04-30T04:32:44;12.90;99.90
10083;DHT22;5080;48.528;8.078;2023-04-30T04:35:15;12.90;99.90
10083;DHT22;5080;48.528;8.078;2023-04-30T04:37:43;12.90;99.90
10083;DHT22;5080;48.528;8.078;2023-04-30T04:40:10;13.00;99.90
10083;DHT22;5080;48.528;8.078;2023-04-30T04:42:38;13.00;99.90
10083;DHT22;5080;48.528;8.078;2023-04-30T04:45:06;13.00;99.90
10083;DHT22;5080;48.528;8.078;2023-04-30T04:47:34;12.90;99.90
10083;DHT22;5080;48.528;8.078;2023-04-30T04:50:01;12.90;99.90
10083;DHT22;5080;48.528;8.078;2023-04-30T04:52:29;13.00;99.90
10083;DHT22;5080;48.528;8.078;2023-04-30T04:54:56;13.00;99.90
10083;DHT22;5080;48.528;8.078;2023-04-30T04:57:23;13.00;99.90
10083;DHT22;5080;48.528;8.078;2023-04-30T04:59:50;13.00;99.90
10083;DHT22;5080;48.528;8.078;2023-04-30T05:02:17;13.20;99.90
10083;DHT22;5080;48.528;8.078;2023-04-30T05:04:44;13.30;99.90
10083;DHT22;5080;48.528;8.078;2023-04-30T05:07:15;13.30;99.90
10083;DHT22;5080;48.528;8.078;2023-04-30T05:09:43;13.40;99.90
10083;DHT22;5080;48.528;8.078;2023-04-30T05:12:10;13.60;99.90
10083;DHT22;5080;48.528;8.078;2023-04-30T05:14:37;13.80;99.90
10083;DHT22;5080;48.528;8.078;2023-04-30T05:17:04;14.00;99.90
10083;DHT22;5080;48.528;8.078;2023-04-30T05:19:31;14.30;99.90
10083;DHT22;5080;48.528;8.078;2023-04-30T05:21:58;14.50;99.90
10083;DHT22;5080;48.528;8.078;2023-04-30T05:24:25;14.60;99.90
10083;DHT22;5080;48.528;8.078;2023-04-30T05:26:54;14.70;99.90
10083;DHT22;5080;48.528;8.078;2023-04-30T05:29:20;14.90;99.90
10083;DHT22;5080;48.528;8.078;2023-04-30T05:31:47;15.10;99.90
10083;DHT22;5080;48.528;8.078;2023-04-30T05:34:14;15.20;99.90
10083;DHT22;5080;48.528;8.078;2023-04-30T05:36:41;15.40;99.90
10083;DHT22;5080;48.528;8.078;2023-04-30T05:39:08;15.50;99.90
10083;DHT22;5080;48.528;8.078;2023-04-30T05:41:34;15.50;99.90
10083;DHT22;5080;48.528;8.078;2023-04-30T05:44:03;15.50;99.90
10083;DHT22;5080;48.528;8.078;2023-04-30T05:46:31;15.50;99.90
10083;DHT22;5080;48.528;8.078;2023-04-30T05:48:58;15.50;99.90
10083;DHT22;5080;48.528;8.078;2023-04-30T05:51:24;15.70;99.90
10083;DHT22;5080;48.528;8.078;2023-04-30T05:53:52;15.60;99.90
10083;DHT22;5080;48.528;8.078;2023-04-30T05:56:19;15.60;99.90
10083;DHT22;5080;48.528;8.078;2023-04-30T05:58:46;15.70;99.90
10083;DHT22;5080;48.528;8.078;2023-04-30T06:01:17;15.70;99.90
10083;DHT22;5080;48.528;8.078;2023-04-30T06:03:44;15.70;99.90
10083;DHT22;5080;48.528;8.078;2023-04-30T06:06:11;15.80;99.90
10083;DHT22;5080;48.528;8.078;2023-04-30T06:08:37;15.80;99.90
10083;DHT22;5080;48.528;8.078;2023-04-30T06:11:06;15.80;99.90
10083;DHT22;5080;48.528;8.078;2023-04-30T06:13:33;15.80;99.90
10083;DHT22;5080;48.528;8.078;2023-04-30T06:16:00;15.80;99.90
10083;DHT22;5080;48.528;8.078;2023-04-30T06:18:29;15.90;99.90
10083;DHT22;5080;48.528;8.078;2023-04-30T06:20:55;15.80;99.90
10083;DHT22;5080;48.528;8.078;2023-04-30T06:23:22;15.80;99.90
10083;DHT22;5080;48.528;8.078;2023-04-30T06:25:49;15.80;99.90
10083;DHT22;5080;48.528;8.078;2023-04-30T06:28:16;15.90;99.90
10083;DHT22;5080;48.528;8.078;2023-04-30T06:30:44;15.90;99.90
10083;DHT22;5080;48.528;8.078;2023-04-30T06:33:11;16.00;99.90
10083;DHT22;5080;48.528;8.078;2023-04-30T06:35:39;16.00;99.90
10083;DHT22;5080;48.528;8.078;2023-04-30T06:38:06;16.00;99.90
10083;DHT22;5080;48.528;8.078;2023-04-30T06:40:33;16.10;99.90
10083;DHT22;5080;48.528;8.078;2023-04-30T06:43:00;16.20;99.90
10083;DHT22;5080;48.528;8.078;2023-04-30T06:45:26;16.30;99.90
10083;DHT22;5080;48.528;8.078;2023-04-30T06:47:53;16.30;99.90
10083;DHT22;5080;48.528;8.078;2023-04-30T06:50:20;16.50;99.90
10083;DHT22;5080;48.528;8.078;2023-04-30T06:52:48;16.40;99.90
10083;DHT22;5080;48.528;8.078;2023-04-30T06:55:15;16.40;99.90
10083;DHT22;5080;48.528;8.078;2023-04-30T06:57:42;16.50;99.90
10083;DHT22;5080;48.528;8.078;2023-04-30T07:00:10;16.50;99.90
10083;DHT22;5080;48.528;8.078;2023-04-30T07:02:38;16.60;99.90
10083;DHT22;5080;48.528;8.078;2023-04-30T07:05:06;16.60;99.90
10083;DHT22;5080;48.528;8.078;2023-04-30T07:07:33;16.70;99.90
10083;DHT22;5080;48.528;8.078;2023-04-30T07:10:01;16.80;99.90
10083;DHT22;5080;48.528;8.078;2023-04-30T07:12:29;16.90;99.90
10083;DHT22;5080;48.528;8.078;2023-04-30T07:14:56;16.80;99.90
10083;DHT22;5080;48.528;8.078;2023-04-30T07:17:23;16.90;99.90
10083;DHT22;5080;48.528;8.078;2023-04-30T07:19:50;17.00;99.90
10083;DHT22;5080;48.528;8.078;2023-04-30T07:22:17;17.10;99.90
10083;DHT22;5080;48.528;8.078;2023-04-30T07:24:44;17.20;99.90
10083;DHT22;5080;48.528;8.078;2023-04-30T07:27:12;17.30;99.90
10083;DHT22;5080;48.528;8.078;2023-04-30T07:29:40;17.20;99.90
10083;DHT22;5080;48.528;8.078;2023-04-30T07:32:06;17.30;99.90
10083;DHT22;5080;48.528;8.078;2023-04-30T07:34:33;17.40;99.90
10083;DHT22;5080;48.528;8.078;2023-04-30T07:37:00;17.50;99.90
10083;DHT22;5080;48.528;8.078;2023-04-30T07:39:28;17.60;99.90
10083;DHT22;5080;48.528;8.078;2023-04-30T07:41:55;17.60;99.90
10083;DHT22;5080;48.528;8.078;2023-04-30T07:44:24;17.70;99.90
10083;DHT22;5080;48.528;8.078;2023-04-30T07:46:50;17.90;99.90
10083;DHT22;5080;48.528;8.078;2023-04-30T07:49:17;18.00;99.90
10083;DHT22;5080;48.528;8.078;2023-04-30T07:51:44;18.10;99.90
10083;DHT22;5080;48.528;8.078;2023-04-30T07:54:11;18.00;99.90
10083;DHT22;5080;48.528;8.078;2023-04-30T07:56:38;18.00;99.90
10083;DHT22;5080;48.528;8.078;2023-04-30T07:59:06;18.00;99.90
10083;DHT22;5080;48.528;8.078;2023-04-30T08:01:34;18.10;99.90
10083;DHT22;5080;48.528;8.078;2023-04-30T08:04:01;18.10;99.90
10083;DHT22;5080;48.528;8.078;2023-04-30T08:06:28;18.20;99.90
10083;DHT22;5080;48.528;8.078;2023-04-30T08:08:55;18.30;99.90
10083;DHT22;5080;48.528;8.078;2023-04-30T08:11:21;18.40;99.90
10083;DHT22;5080;48.528;8.078;2023-04-30T08:13:48;18.40;99.90
10083;DHT22;5080;48.528;8.078;2023-04-30T08:16:15;18.50;99.90
10083;DHT22;5080;48.528;8.078;2023-04-30T08:18:44;18.50;99.90
10083;DHT22;5080;48.528;8.078;2023-04-30T08:21:11;18.50;99.90
10083;DHT22;5080;48.528;8.078;2023-04-30T08:23:38;18.40;99.90
10083;DHT22;5080;48.528;8.078;2023-04-30T08:26:05;18.40;99.90
10083;DHT22;5080;48.528;8.078;2023-04-30T08:28:32;18.40;99.90
10083;DHT22;5080;48.528;8.078;2023-04-30T08:31:00;18.60;99.90
10083;DHT22;5080;48.528;8.078;2023-04-30T08:33:26;18.80;99.90
10083;DHT22;5080;48.528;8.078;2023-04-30T08:35:55;18.80;99.90
10083;DHT22;5080;48.528;8.078;2023-04-30T08:38:22;18.90;99.90
10083;DHT22;5080;48.528;8.078;2023-04-30T08:40:55;18.90;99.90
10083;DHT22;5080;48.528;8.078;2023-04-30T08:43:22;19.10;99.90
10083;DHT22;5080;48.528;8.078;2023-04-30T08:45:50;19.20;99.90
10083;DHT22;5080;48.528;8.078;2023-04-30T08:48:17;19.10;99.90
10083;DHT22;5080;48.528;8.078;2023-04-30T08:50:44;19.20;99.90
10083;DHT22;5080;48.528;8.078;2023-04-30T08:53:14;19.20;99.90
10083;DHT22;5080;48.528;8.078;2023-04-30T08:55:41;19.10;99.90
10083;DHT22;5080;48.528;8.078;2023-04-30T08:58:09;19.10;99.90
10083;DHT22;5080;48.528;8.078;2023-04-30T09:00:37;19.30;99.90
10083;DHT22;5080;48.528;8.078;2023-04-30T09:03:04;19.30;99.90
10083;DHT22;5080;48.528;8.078;2023-04-30T09:05:31;19.40;99.90
10083;DHT22;5080;48.528;8.078;2023-04-30T09:07:58;19.50;99.90
10083;DHT22;5080;48.528;8.078;2023-04-30T09:10:27;19.60;99.90
10083;DHT22;5080;48.528;8.078;2023-04-30T09:13:01;19.60;99.90
10083;DHT22;5080;48.528;8.078;2023-04-30T09:15:28;19.70;99.90
10083;DHT22;5080;48.528;8.078;2023-04-30T09:18:06;19.80;99.90
10083;DHT22;5080;48.528;8.078;2023-04-30T09:20:33;19.90;99.90
10083;DHT22;5080;48.528;8.078;2023-04-30T09:23:08;20.00;99.90
10083;DHT22;5080;48.528;8.078;2023-04-30T09:25:40;20.00;99.90
10083;DHT22;5080;48.528;8.078;2023-04-30T09:28:08;19.90;99.90
10083;DHT22;5080;48.528;8.078;2023-04-30T09:30:36;19.90;99.90
10083;DHT22;5080;48.528;8.078;2023-04-30T09:33:03;19.70;99.90
10083;DHT22;5080;48.528;8.078;2023-04-30T09:35:32;19.60;99.90
10083;DHT22;5080;48.528;8.078;2023-04-30T09:37:59;19.50;99.90
10083;DHT22;5080;48.528;8.078;2023-04-30T09:40:37;19.40;99.90
10083;DHT22;5080;48.528;8.078;2023-04-30T09:43:08;19.20;99.90
10083;DHT22;5080;48.528;8.078;2023-04-30T09:45:41;19.20;99.90
10083;DHT22;5080;48.528;8.078;2023-04-30T09:48:09;19.30;99.90
10083;DHT22;5080;48.528;8.078;2023-04-30T09:50:37;19.10;99.90
10083;DHT22;5080;48.528;8.078;2023-04-30T09:53:06;19.20;99.90
10083;DHT22;5080;48.528;8.078;2023-04-30T09:55:34;19.20;99.90
10083;DHT22;5080;48.528;8.078;2023-04-30T09:58:04;19.20;99.90
10083;DHT22;5080;48.528;8.078;2023-04-30T10:00:33;19.30;99.90
10083;DHT22;5080;48.528;8.078;2023-04-30T10:03:05;19.30;99.90
10083;DHT22;5080;48.528;8.078;2023-04-30T10:05:36;19.20;99.90
10083;DHT22;5080;48.528;8.078;2023-04-30T10:08:06;19.20;99.90
10083;DHT22;5080;48.528;8.078;2023-04-30T10:10:36;19.20;99.90
10083;DHT22;5080;48.528;8.078;2023-04-30T10:13:04;19.30;99.90
10083;DHT22;5080;48.528;8.078;2023-04-30T10:15:39;19.30;99.90
10083;DHT22;5080;48.528;8.078;2023-04-30T10:18:12;19.20;99.90
10083;DHT22;5080;48.528;8.078;2023-04-30T10:20:40;19.20;99.90
10083;DHT22;5080;48.528;8.078;2023-04-30T10:23:08;19.20;99.90
10083;DHT22;5080;48.528;8.078;2023-04-30T10:25:37;19.30;99.90
10083;DHT22;5080;48.528;8.078;2023-04-30T10:28:07;19.30;99.90
10083;DHT22;5080;48.528;8.078;2023-04-30T10:30:34;19.40;99.90
10083;DHT22;5080;48.528;8.078;2023-04-30T10:33:09;19.30;99.90
10083;DHT22;5080;48.528;8.078;2023-04-30T10:35:44;19.40;99.90
10083;DHT22;5080;48.528;8.078;2023-04-30T10:38:17;19.50;99.90
10083;DHT22;5080;48.528;8.078;2023-04-30T10:40:46;19.60;99.90
10083;DHT22;5080;48.528;8.078;2023-04-30T10:43:13;19.60;99.90
10083;DHT22;5080;48.528;8.078;2023-04-30T10:45:43;19.70;99.90
10083;DHT22;5080;48.528;8.078;2023-04-30T10:48:14;19.70;99.90
10083;DHT22;5080;48.528;8.078;2023-04-30T10:50:43;19.80;99.90
10083;DHT22;5080;48.528;8.078;2023-04-30T10:53:12;19.90;99.90
10083;DHT22;5080;48.528;8.078;2023-04-30T10:55:45;20.20;99.90
10083;DHT22;5080;48.528;8.078;2023-04-30T10:58:32;20.10;99.90
10083;DHT22;5080;48.528;8.078;2023-04-30T11:01:01;20.30;99.90
10083;DHT22;5080;48.528;8.078;2023-04-30T11:03:30;20.70;99.90
10083;DHT22;5080;48.528;8.078;2023-04-30T11:06:00;20.80;99.90
10083;DHT22;5080;48.528;8.078;2023-04-30T11:08:34;20.70;99.90
10083;DHT22;5080;48.528;8.078;2023-04-30T11:11:01;20.70;99.90
10083;DHT22;5080;48.528;8.078;2023-04-30T11:13:38;20.70;99.90
10083;DHT22;5080;48.528;8.078;2023-04-30T11:16:05;20.80;99.90
10083;DHT22;5080;48.528;8.078;2023-04-30T11:18:33;20.80;99.90
10083;DHT22;5080;48.528;8.078;2023-04-30T11:21:01;20.80;99.90
10083;DHT22;5080;48.528;8.078;2023-04-30T11:23:28;20.50;99.90
10083;DHT22;5080;48.528;8.078;2023-04-30T11:25:55;20.30;99.90
10083;DHT22;5080;48.528;8.078;2023-04-30T11:28:25;20.40;99.90
10083;DHT22;5080;48.528;8.078;2023-04-30T11:30:53;20.70;99.90
10083;DHT22;5080;48.528;8.078;2023-04-30T11:33:21;20.90;99.90
10083;DHT22;5080;48.528;8.078;2023-04-30T11:35:50;20.80;99.90
10083;DHT22;5080;48.528;8.078;2023-04-30T11:38:20;20.70;99.90
10083;DHT22;5080;48.528;8.078;2023-04-30T11:40:47;20.60;99.90
10083;DHT22;5080;48.528;8.078;2023-04-30T11:43:24;21.00;99.90
10083;DHT22;5080;48.528;8.078;2023-04-30T11:46:06;21.60;99.90
10083;DHT22;5080;48.528;8.078;2023-04-30T11:48:34;21.60;99.90
10083;DHT22;5080;48.528;8.078;2023-04-30T11:51:13;21.40;99.90
10083;DHT22;5080;48.528;8.078;2023-04-30T11:53:41;21.00;99.90
10083;DHT22;5080;48.528;8.078;2023-04-30T11:56:08;20.80;99.90
10083;DHT22;5080;48.528;8.078;2023-04-30T11:58:35;20.70;99.90
10083;DHT22;5080;48.528;8.078;2023-04-30T12:01:04;20.60;99.90
10083;DHT22;5080;48.528;8.078;2023-04-30T12:03:33;20.70;99.90
10083;DHT22;5080;48.528;8.078;2023-04-30T12:06:09;20.70;99.90
10083;DHT22;5080;48.528;8.078;2023-04-30T12:08:36;21.00;99.90
10083;DHT22;5080;48.528;8.078;2023-04-30T12:11:03;21.30;99.90
10083;DHT22;5080;48.528;8.078;2023-04-30T12:13:32;21.40;99.90
10083;DHT22;5080;48.528;8.078;2023-04-30T12:15:59;21.30;99.90
10083;DHT22;5080;48.528;8.078;2023-04-30T12:18:27;21.50;99.90
10083;DHT22;5080;48.528;8.078;2023-04-30T12:20:54;21.60;99.90
10083;DHT22;5080;48.528;8.078;2023-04-30T12:23:22;21.60;99.90
10083;DHT22;5080;48.528;8.078;2023-04-30T12:25:50;21.40;99.90
10083;DHT22;5080;48.528;8.078;2023-04-30T12:28:17;21.20;99.90
10083;DHT22;5080;48.528;8.078;2023-04-30T12:30:43;21.20;99.90
10083;DHT22;5080;48.528;8.078;2023-04-30T12:33:10;21.30;99.90
10083;DHT22;5080;48.528;8.078;2023-04-30T12:35:41;21.30;99.90
10083;DHT22;5080;48.528;8.078;2023-04-30T12:38:08;21.30;99.90
10083;DHT22;5080;48.528;8.078;2023-04-30T12:40:37;21.50;99.90
10083;DHT22;5080;48.528;8.078;2023-04-30T12:43:06;21.50;99.90
10083;DHT22;5080;48.528;8.078;2023-04-30T12:45:47;21.70;99.90
10083;DHT22;5080;48.528;8.078;2023-04-30T12:48:16;21.80;99.90
10083;DHT22;5080;48.528;8.078;2023-04-30T12:50:47;21.90;99.90
10083;DHT22;5080;48.528;8.078;2023-04-30T12:53:14;22.20;99.90
10083;DHT22;5080;48.528;8.078;2023-04-30T12:55:43;22.30;99.90
10083;DHT22;5080;48.528;8.078;2023-04-30T12:58:12;22.30;99.90
10083;DHT22;5080;48.528;8.078;2023-04-30T13:00:47;22.30;99.90
10083;DHT22;5080;48.528;8.078;2023-04-30T13:03:15;22.00;99.90
10083;DHT22;5080;48.528;8.078;2023-04-30T13:05:45;21.70;99.90
10083;DHT22;5080;48.528;8.078;2023-04-30T13:08:13;21.50;99.90
10083;DHT22;5080;48.528;8.078;2023-04-30T13:10:40;21.60;99.90
10083;DHT22;5080;48.528;8.078;2023-04-30T13:13:09;21.50;99.90
10083;DHT22;5080;48.528;8.078;2023-04-30T13:15:36;21.60;99.90
10083;DHT22;5080;48.528;8.078;2023-04-30T13:18:03;21.70;99.90
10083;DHT22;5080;48.528;8.078;2023-04-30T13:20:31;21.70;99.90
10083;DHT22;5080;48.528;8.078;2023-04-30T13:22:58;21.60;99.90
10083;DHT22;5080;48.528;8.078;2023-04-30T13:25:25;21.50;99.90
10083;DHT22;5080;48.528;8.078;2023-04-30T13:27:51;21.50;99.90
10083;DHT22;5080;48.528;8.078;2023-04-30T13:30:20;21.40;99.90
10083;DHT22;5080;48.528;8.078;2023-04-30T13:32:46;21.40;99.90
10083;DHT22;5080;48.528;8.078;2023-04-30T13:35:13;21.50;99.90
10083;DHT22;5080;48.528;8.078;2023-04-30T13:37:40;21.50;99.90
10083;DHT22;5080;48.528;8.078;2023-04-30T13:40:08;21.50;99.90
10083;DHT22;5080;48.528;8.078;2023-04-30T13:42:37;21.40;99.90
10083;DHT22;5080;48.528;8.078;2023-04-30T13:45:05;21.50;99.90
10083;DHT22;5080;48.528;8.078;2023-04-30T13:47:34;21.40;99.90
10083;DHT22;5080;48.528;8.078;2023-04-30T13:50:01;21.60;99.90
10083;DHT22;5080;48.528;8.078;2023-04-30T13:52:28;21.70;99.90
10083;DHT22;5080;48.528;8.078;2023-04-30T13:54:55;21.70;99.90
10083;DHT22;5080;48.528;8.078;2023-04-30T13:57:22;21.80;99.90
10083;DHT22;5080;48.528;8.078;2023-04-30T13:59:49;21.70;99.90
10083;DHT22;5080;48.528;8.078;2023-04-30T14:02:17;21.50;99.90
10083;DHT22;5080;48.528;8.078;2023-04-30T14:04:46;21.80;99.90
10083;DHT22;5080;48.528;8.078;2023-04-30T14:07:13;21.80;99.90
10083;DHT22;5080;48.528;8.078;2023-04-30T14:09:40;21.80;99.90
10083;DHT22;5080;48.528;8.078;2023-04-30T14:12:07;21.80;99.90
10083;DHT22;5080;48.528;8.078;2023-04-30T15:09:37;21.50;99.90
10083;DHT22;5080;48.528;8.078;2023-04-30T15:12:04;21.50;99.90
10083;DHT22;5080;48.528;8.078;2023-04-30T15:14:31;21.40;99.90
10083;DHT22;5080;48.528;8.078;2023-04-30T15:16:58;21.30;99.90
10083;DHT22;5080;48.528;8.078;2023-04-30T15:19:25;21.30;99.90
10083;DHT22;5080;48.528;8.078;2023-04-30T15:21:52;21.20;99.90
10083;DHT22;5080;48.528;8.078;2023-04-30T15:24:19;21.10;99.90
10083;DHT22;5080;48.528;8.078;2023-04-30T15:26:47;21.00;99.90
10083;DHT22;5080;48.528;8.078;2023-04-30T15:29:15;21.30;99.90
10083;DHT22;5080;48.528;8.078;2023-04-30T15:31:42;21.40;99.90
10083;DHT22;5080;48.528;8.078;2023-04-30T15:34:09;21.50;99.90
10083;DHT22;5080;48.528;8.078;2023-04-30T15:36:36;21.40;99.90
10083;DHT22;5080;48.528;8.078;2023-04-30T15:39:03;21.20;99.90
10083;DHT22;5080;48.528;8.078;2023-04-30T15:41:29;21.20;99.90
10083;DHT22;5080;48.528;8.078;2023-04-30T15:43:58;21.30;99.90
10083;DHT22;5080;48.528;8.078;2023-04-30T15:46:25;21.20;99.90
10083;DHT22;5080;48.528;8.078;2023-04-30T15:48:51;21.10;99.90
10083;DHT22;5080;48.528;8.078;2023-04-30T15:51:18;20.90;99.90
10083;DHT22;5080;48.528;8.078;2023-04-30T15:53:46;20.80;99.90
10083;DHT22;5080;48.528;8.078;2023-04-30T15:56:13;20.80;99.90
10083;DHT22;5080;48.528;8.078;2023-04-30T15:58:40;20.70;99.90
10083;DHT22;5080;48.528;8.078;2023-04-30T16:01:08;20.70;99.90
10083;DHT22;5080;48.528;8.078;2023-04-30T16:03:35;20.70;99.90
10083;DHT22;5080;48.528;8.078;2023-04-30T16:06:02;20.60;99.90
10083;DHT22;5080;48.528;8.078;2023-04-30T16:08:30;20.70;99.90
10083;DHT22;5080;48.528;8.078;2023-04-30T16:10:58;20.70;99.90
10083;DHT22;5080;48.528;8.078;2023-04-30T16:13:26;20.60;99.90
10083;DHT22;5080;48.528;8.078;2023-04-30T16:15:53;20.60;99.90
10083;DHT22;5080;48.528;8.078;2023-04-30T16:18:21;20.60;99.90
10083;DHT22;5080;48.528;8.078;2023-04-30T16:20:48;20.60;99.90
10083;DHT22;5080;48.528;8.078;2023-04-30T16:23:15;20.70;99.90
10083;DHT22;5080;48.528;8.078;2023-04-30T16:25:42;20.70;99.90
10083;DHT22;5080;48.528;8.078;2023-04-30T16:28:09;20.50;99.90
10083;DHT22;5080;48.528;8.078;2023-04-30T16:30:36;20.50;99.90
10083;DHT22;5080;48.528;8.078;2023-04-30T16:33:03;20.40;99.90
10083;DHT22;5080;48.528;8.078;2023-04-30T16:35:31;20.40;99.90
10083;DHT22;5080;48.528;8.078;2023-04-30T16:37:58;20.30;99.90
10083;DHT22;5080;48.528;8.078;2023-04-30T16:40:25;20.30;99.90
10083;DHT22;5080;48.528;8.078;2023-04-30T16:42:52;20.20;99.90
10083;DHT22;5080;48.528;8.078;2023-04-30T16:45:20;20.10;99.90